sensor_id;sensor_type;location;lat;lon;timestamp;P1;durP1;ratioP1;P2;durP2;ratioP2
19255;SDS011;9762;52.490;13.410;2024-01-06T00:01:51;36.43;;;27.63;;
19255;SDS011;9762;52.490;13.410;2024-01-06T00:04:16;36.80;;;27.43;;
19255;SDS011;9762;52.490;13.410;2024-01-06T00:06:42;37.73;;;28.40;;
19255;SDS011;9762;52.490;13.410;2024-01-06T00:09:08;37.23;;;27.33;;
19255;SDS011;9762;52.490;13.410;2024-01-06T00:11:34;40.10;;;27.10;;
19255;SDS011;9762;52.490;13.410;2024-01-06T00:13:59;36.90;;;27.20;;
19255;SDS011;9762;52.490;13.410;2024-01-06T00:16:25;36.43;;;25.80;;
19255;SDS011;9762;52.490;13.410;2024-01-06T00:18:51;34.47;;;25.67;;
19255;SDS011;9762;52.490;13.410;2024-01-06T00:21:16;34.07;;;26.43;;
19255;SDS011;9762;52.490;13.410;2024-01-06T00:23:42;35.10;;;27.03;;
19255;SDS011;9762;52.490;13.410;2024-01-06T00:26:08;32.43;;;25.83;;
19255;SDS011;9762;52.490;13.410;2024-01-06T00:28:34;33.03;;;24.77;;
19255;SDS011;9762;52.490;13.410;2024-01-06T00:31:00;32.10;;;23.83;;
19255;SDS011;9762;52.490;13.410;2024-01-06T00:33:26;29.20;;;22.90;;
19255;SDS011;9762;52.490;13.410;2024-01-06T00:35:51;30.87;;;23.47;;
19255;SDS011;9762;52.490;13.410;2024-01-06T00:38:17;33.87;;;25.13;;
19255;SDS011;9762;52.490;13.410;2024-01-06T00:40:43;37.73;;;25.87;;
19255;SDS011;9762;52.490;13.410;2024-01-06T00:43:09;33.60;;;25.10;;
19255;SDS011;9762;52.490;13.410;2024-01-06T00:45:35;35.97;;;24.87;;
19255;SDS011;9762;52.490;13.410;2024-01-06T00:48:00;34.20;;;23.70;;
19255;SDS011;9762;52.490;13.410;2024-01-06T00:50:26;30.67;;;23.03;;
19255;SDS011;9762;52.490;13.410;2024-01-06T00:52:51;34.93;;;24.47;;
19255;SDS011;9762;52.490;13.410;2024-01-06T00:55:19;32.30;;;23.17;;
19255;SDS011;9762;52.490;13.410;2024-01-06T00:57:45;34.93;;;23.97;;
19255;SDS011;9762;52.490;13.410;2024-01-06T01:00:11;34.17;;;24.37;;
19255;SDS011;9762;52.490;13.410;2024-01-06T01:02:37;31.10;;;22.83;;
19255;SDS011;9762;52.490;13.410;2024-01-06T01:05:03;29.17;;;22.47;;
19255;SDS011;9762;52.490;13.410;2024-01-06T01:07:28;33.77;;;23.07;;
19255;SDS011;9762;52.490;13.410;2024-01-06T01:09:54;30.13;;;23.53;;
19255;SDS011;9762;52.490;13.410;2024-01-06T01:12:21;32.20;;;23.33;;
19255;SDS011;9762;52.490;13.410;2024-01-06T01:14:47;28.80;;;21.70;;
19255;SDS011;9762;52.490;13.410;2024-01-06T01:17:12;32.53;;;23.07;;
19255;SDS011;9762;52.490;13.410;2024-01-06T01:19:38;29.00;;;22.00;;
19255;SDS011;9762;52.490;13.410;2024-01-06T01:22:04;32.77;;;22.10;;
19255;SDS011;9762;52.490;13.410;2024-01-06T01:24:29;31.90;;;22.43;;
19255;SDS011;9762;52.490;13.410;2024-01-06T01:26:55;30.87;;;22.90;;
19255;SDS011;9762;52.490;13.410;2024-01-06T01:29:20;32.37;;;23.33;;
19255;SDS011;9762;52.490;13.410;2024-01-06T01:31:46;36.00;;;26.27;;
19255;SDS011;9762;52.490;13.410;2024-01-06T01:34:12;34.63;;;22.47;;
19255;SDS011;9762;52.490;13.410;2024-01-06T01:36:38;34.43;;;23.07;;
19255;SDS011;9762;52.490;13.410;2024-01-06T01:39:03;31.93;;;23.87;;
19255;SDS011;9762;52.490;13.410;2024-01-06T01:41:29;35.57;;;25.03;;
19255;SDS011;9762;52.490;13.410;2024-01-06T01:43:54;33.17;;;23.03;;
19255;SDS011;9762;52.490;13.410;2024-01-06T01:46:26;32.97;;;21.80;;
19255;SDS011;9762;52.490;13.410;2024-01-06T01:48:55;34.27;;;22.13;;
19255;SDS011;9762;52.490;13.410;2024-01-06T01:51:23;32.87;;;20.83;;
19255;SDS011;9762;52.490;13.410;2024-01-06T01:53:52;29.57;;;20.90;;
19255;SDS011;9762;52.490;13.410;2024-01-06T01:56:18;29.37;;;20.87;;
19255;SDS011;9762;52.490;13.410;2024-01-06T01:58:44;28.33;;;20.37;;
19255;SDS011;9762;52.490;13.410;2024-01-06T02:01:10;29.33;;;19.63;;
19255;SDS011;9762;52.490;13.410;2024-01-06T02:03:36;29.03;;;21.00;;
19255;SDS011;9762;52.490;13.410;2024-01-06T02:06:02;27.33;;;21.47;;
19255;SDS011;9762;52.490;13.410;2024-01-06T02:08:28;30.50;;;21.20;;
19255;SDS011;9762;52.490;13.410;2024-01-06T02:10:54;30.03;;;21.93;;
19255;SDS011;9762;52.490;13.410;2024-01-06T02:13:21;27.77;;;20.40;;
19255;SDS011;9762;52.490;13.410;2024-01-06T02:15:47;29.57;;;19.67;;
19255;SDS011;9762;52.490;13.410;2024-01-06T02:18:12;32.07;;;21.73;;
19255;SDS011;9762;52.490;13.410;2024-01-06T02:20:38;24.70;;;20.03;;
19255;SDS011;9762;52.490;13.410;2024-01-06T02:23:08;32.03;;;21.57;;
19255;SDS011;9762;52.490;13.410;2024-01-06T02:25:33;32.10;;;21.37;;
19255;SDS011;9762;52.490;13.410;2024-01-06T02:28:00;27.67;;;20.73;;
19255;SDS011;9762;52.490;13.410;2024-01-06T02:30:26;32.23;;;21.93;;
19255;SDS011;9762;52.490;13.410;2024-01-06T02:32:51;30.80;;;21.53;;
19255;SDS011;9762;52.490;13.410;2024-01-06T02:35:17;30.77;;;21.37;;
19255;SDS011;9762;52.490;13.410;2024-01-06T02:37:43;30.80;;;21.57;;
19255;SDS011;9762;52.490;13.410;2024-01-06T02:40:09;28.30;;;22.60;;
19255;SDS011;9762;52.490;13.410;2024-01-06T02:42:35;34.53;;;22.13;;
19255;SDS011;9762;52.490;13.410;2024-01-06T02:45:00;30.67;;;20.90;;
19255;SDS011;9762;52.490;13.410;2024-01-06T02:47:26;30.90;;;22.03;;
19255;SDS011;9762;52.490;13.410;2024-01-06T02:49:52;27.33;;;19.93;;
19255;SDS011;9762;52.490;13.410;2024-01-06T02:52:17;28.87;;;20.80;;
19255;SDS011;9762;52.490;13.410;2024-01-06T02:54:43;30.13;;;21.70;;
19255;SDS011;9762;52.490;13.410;2024-01-06T02:57:08;31.07;;;21.10;;
19255;SDS011;9762;52.490;13.410;2024-01-06T02:59:34;28.03;;;21.27;;
19255;SDS011;9762;52.490;13.410;2024-01-06T03:02:00;28.57;;;20.77;;
19255;SDS011;9762;52.490;13.410;2024-01-06T03:04:26;28.33;;;20.23;;
19255;SDS011;9762;52.490;13.410;2024-01-06T03:06:52;26.30;;;20.27;;
19255;SDS011;9762;52.490;13.410;2024-01-06T03:09:18;26.53;;;19.63;;
19255;SDS011;9762;52.490;13.410;2024-01-06T03:11:44;28.47;;;19.43;;
19255;SDS011;9762;52.490;13.410;2024-01-06T03:14:10;26.80;;;19.83;;
19255;SDS011;9762;52.490;13.410;2024-01-06T03:16:36;26.93;;;19.37;;
19255;SDS011;9762;52.490;13.410;2024-01-06T03:19:01;31.00;;;20.73;;
19255;SDS011;9762;52.490;13.410;2024-01-06T03:21:27;31.30;;;21.27;;
19255;SDS011;9762;52.490;13.410;2024-01-06T03:23:52;31.90;;;18.87;;
19255;SDS011;9762;52.490;13.410;2024-01-06T03:26:20;27.53;;;19.40;;
19255;SDS011;9762;52.490;13.410;2024-01-06T03:28:46;25.53;;;18.80;;
19255;SDS011;9762;52.490;13.410;2024-01-06T03:31:14;25.17;;;19.00;;
19255;SDS011;9762;52.490;13.410;2024-01-06T03:33:39;29.13;;;20.60;;
19255;SDS011;9762;52.490;13.410;2024-01-06T03:36:05;30.77;;;20.53;;
19255;SDS011;9762;52.490;13.410;2024-01-06T03:38:32;27.00;;;19.73;;
19255;SDS011;9762;52.490;13.410;2024-01-06T03:40:58;28.17;;;20.53;;
19255;SDS011;9762;52.490;13.410;2024-01-06T03:43:23;29.67;;;20.43;;
19255;SDS011;9762;52.490;13.410;2024-01-06T03:45:49;28.90;;;20.13;;
19255;SDS011;9762;52.490;13.410;2024-01-06T03:48:14;31.77;;;21.47;;
19255;SDS011;9762;52.490;13.410;2024-01-06T03:50:40;36.00;;;22.77;;
19255;SDS011;9762;52.490;13.410;2024-01-06T03:53:06;40.63;;;22.60;;
19255;SDS011;9762;52.490;13.410;2024-01-06T03:55:31;32.33;;;22.17;;
19255;SDS011;9762;52.490;13.410;2024-01-06T03:57:57;34.47;;;22.83;;
19255;SDS011;9762;52.490;13.410;2024-01-06T04:00:24;30.27;;;21.70;;
19255;SDS011;9762;52.490;13.410;2024-01-06T04:02:50;33.73;;;22.73;;
19255;SDS011;9762;52.490;13.410;2024-01-06T04:05:16;30.93;;;22.33;;
19255;SDS011;9762;52.490;13.410;2024-01-06T04:07:42;31.03;;;21.87;;
19255;SDS011;9762;52.490;13.410;2024-01-06T04:10:07;34.23;;;22.20;;
19255;SDS011;9762;52.490;13.410;2024-01-06T04:12:33;27.20;;;20.30;;
19255;SDS011;9762;52.490;13.410;2024-01-06T04:14:59;30.70;;;22.73;;
19255;SDS011;9762;52.490;13.410;2024-01-06T04:17:24;31.97;;;22.53;;
19255;SDS011;9762;52.490;13.410;2024-01-06T04:19:51;30.17;;;21.43;;
19255;SDS011;9762;52.490;13.410;2024-01-06T04:22:18;31.20;;;22.33;;
19255;SDS011;9762;52.490;13.410;2024-01-06T04:24:44;27.60;;;21.23;;
19255;SDS011;9762;52.490;13.410;2024-01-06T04:27:09;30.83;;;21.93;;
19255;SDS011;9762;52.490;13.410;2024-01-06T04:29:35;28.53;;;20.87;;
19255;SDS011;9762;52.490;13.410;2024-01-06T04:32:01;29.63;;;21.83;;
19255;SDS011;9762;52.490;13.410;2024-01-06T04:34:26;32.33;;;22.07;;
19255;SDS011;9762;52.490;13.410;2024-01-06T04:36:52;29.90;;;20.47;;
19255;SDS011;9762;52.490;13.410;2024-01-06T04:39:18;28.53;;;20.53;;
19255;SDS011;9762;52.490;13.410;2024-01-06T04:41:44;32.17;;;22.20;;
19255;SDS011;9762;52.490;13.410;2024-01-06T04:44:09;31.80;;;21.80;;
19255;SDS011;9762;52.490;13.410;2024-01-06T04:46:35;34.23;;;21.67;;
19255;SDS011;9762;52.490;13.410;2024-01-06T04:49:00;30.50;;;20.53;;
19255;SDS011;9762;52.490;13.410;2024-01-06T04:51:26;34.23;;;21.80;;
19255;SDS011;9762;52.490;13.410;2024-01-06T04:53:52;32.53;;;22.77;;
19255;SDS011;9762;52.490;13.410;2024-01-06T04:56:17;32.60;;;23.90;;
19255;SDS011;9762;52.490;13.410;2024-01-06T04:58:43;33.47;;;22.57;;
19255;SDS011;9762;52.490;13.410;2024-01-06T05:01:09;35.27;;;24.40;;
19255;SDS011;9762;52.490;13.410;2024-01-06T05:03:35;33.10;;;22.27;;
19255;SDS011;9762;52.490;13.410;2024-01-06T05:06:00;38.50;;;24.47;;
19255;SDS011;9762;52.490;13.410;2024-01-06T05:08:26;34.57;;;23.13;;
19255;SDS011;9762;52.490;13.410;2024-01-06T05:10:52;40.13;;;24.93;;
19255;SDS011;9762;52.490;13.410;2024-01-06T05:13:19;32.43;;;23.70;;
19255;SDS011;9762;52.490;13.410;2024-01-06T05:15:45;35.37;;;23.93;;
19255;SDS011;9762;52.490;13.410;2024-01-06T05:18:10;34.60;;;24.57;;
19255;SDS011;9762;52.490;13.410;2024-01-06T05:20:36;35.47;;;22.90;;
19255;SDS011;9762;52.490;13.410;2024-01-06T05:23:01;38.33;;;25.87;;
19255;SDS011;9762;52.490;13.410;2024-01-06T05:25:27;42.37;;;26.67;;
19255;SDS011;9762;52.490;13.410;2024-01-06T05:27:53;40.80;;;26.67;;
19255;SDS011;9762;52.490;13.410;2024-01-06T05:30:18;40.00;;;27.10;;
19255;SDS011;9762;52.490;13.410;2024-01-06T05:32:44;43.17;;;27.40;;
19255;SDS011;9762;52.490;13.410;2024-01-06T05:35:10;34.53;;;25.20;;
19255;SDS011;9762;52.490;13.410;2024-01-06T05:37:35;38.07;;;24.13;;
19255;SDS011;9762;52.490;13.410;2024-01-06T05:40:01;39.43;;;27.33;;
19255;SDS011;9762;52.490;13.410;2024-01-06T05:42:28;37.47;;;25.30;;
19255;SDS011;9762;52.490;13.410;2024-01-06T05:44:54;41.17;;;25.90;;
19255;SDS011;9762;52.490;13.410;2024-01-06T05:47:20;40.10;;;25.67;;
19255;SDS011;9762;52.490;13.410;2024-01-06T05:49:45;42.27;;;25.90;;
19255;SDS011;9762;52.490;13.410;2024-01-06T05:52:11;38.53;;;25.70;;
19255;SDS011;9762;52.490;13.410;2024-01-06T05:54:40;37.13;;;24.60;;
19255;SDS011;9762;52.490;13.410;2024-01-06T05:57:07;42.93;;;26.43;;
19255;SDS011;9762;52.490;13.410;2024-01-06T05:59:33;42.60;;;26.80;;
19255;SDS011;9762;52.490;13.410;2024-01-06T06:01:59;37.77;;;25.03;;
19255;SDS011;9762;52.490;13.410;2024-01-06T06:04:25;41.00;;;26.27;;
19255;SDS011;9762;52.490;13.410;2024-01-06T06:06:50;39.73;;;26.07;;
19255;SDS011;9762;52.490;13.410;2024-01-06T06:09:16;36.13;;;24.00;;
19255;SDS011;9762;52.490;13.410;2024-01-06T06:11:42;44.63;;;27.57;;
19255;SDS011;9762;52.490;13.410;2024-01-06T06:14:08;39.67;;;25.70;;
19255;SDS011;9762;52.490;13.410;2024-01-06T06:16:34;44.23;;;27.27;;
19255;SDS011;9762;52.490;13.410;2024-01-06T06:18:59;37.13;;;24.53;;
19255;SDS011;9762;52.490;13.410;2024-01-06T06:21:25;41.13;;;26.10;;
19255;SDS011;9762;52.490;13.410;2024-01-06T06:23:51;42.67;;;26.23;;
19255;SDS011;9762;52.490;13.410;2024-01-06T06:26:17;35.53;;;24.70;;
19255;SDS011;9762;52.490;13.410;2024-01-06T06:28:42;40.77;;;25.77;;
19255;SDS011;9762;52.490;13.410;2024-01-06T06:31:08;39.90;;;27.07;;
19255;SDS011;9762;52.490;13.410;2024-01-06T06:33:34;39.87;;;25.43;;
19255;SDS011;9762;52.490;13.410;2024-01-06T06:35:59;38.80;;;25.40;;
19255;SDS011;9762;52.490;13.410;2024-01-06T06:38:26;39.10;;;25.97;;
19255;SDS011;9762;52.490;13.410;2024-01-06T06:40:52;38.97;;;25.53;;
19255;SDS011;9762;52.490;13.410;2024-01-06T06:43:18;41.83;;;25.93;;
19255;SDS011;9762;52.490;13.410;2024-01-06T06:45:43;40.87;;;24.80;;
19255;SDS011;9762;52.490;13.410;2024-01-06T06:48:09;41.77;;;24.77;;
19255;SDS011;9762;52.490;13.410;2024-01-06T06:50:35;37.13;;;24.90;;
19255;SDS011;9762;52.490;13.410;2024-01-06T06:53:01;34.33;;;23.67;;
19255;SDS011;9762;52.490;13.410;2024-01-06T06:55:27;39.13;;;24.87;;
19255;SDS011;9762;52.490;13.410;2024-01-06T06:57:53;34.17;;;23.73;;
19255;SDS011;9762;52.490;13.410;2024-01-06T07:00:19;39.13;;;24.97;;
19255;SDS011;9762;52.490;13.410;2024-01-06T07:02:45;39.20;;;22.90;;
19255;SDS011;9762;52.490;13.410;2024-01-06T07:05:10;37.50;;;24.13;;
19255;SDS011;9762;52.490;13.410;2024-01-06T07:07:36;42.60;;;24.77;;
19255;SDS011;9762;52.490;13.410;2024-01-06T07:10:03;38.77;;;24.13;;
19255;SDS011;9762;52.490;13.410;2024-01-06T07:12:30;38.90;;;24.37;;
19255;SDS011;9762;52.490;13.410;2024-01-06T07:14:56;35.10;;;24.67;;
19255;SDS011;9762;52.490;13.410;2024-01-06T07:17:23;37.63;;;25.37;;
19255;SDS011;9762;52.490;13.410;2024-01-06T07:19:49;35.93;;;23.57;;
19255;SDS011;9762;52.490;13.410;2024-01-06T07:22:15;36.97;;;23.23;;
19255;SDS011;9762;52.490;13.410;2024-01-06T07:24:44;34.77;;;23.43;;
19255;SDS011;9762;52.490;13.410;2024-01-06T07:27:09;39.43;;;25.50;;
19255;SDS011;9762;52.490;13.410;2024-01-06T07:29:35;41.27;;;25.70;;
19255;SDS011;9762;52.490;13.410;2024-01-06T07:32:01;44.63;;;25.30;;
19255;SDS011;9762;52.490;13.410;2024-01-06T07:34:26;41.67;;;25.33;;
19255;SDS011;9762;52.490;13.410;2024-01-06T07:36:52;40.77;;;24.50;;
19255;SDS011;9762;52.490;13.410;2024-01-06T07:39:18;41.33;;;23.87;;
19255;SDS011;9762;52.490;13.410;2024-01-06T07:41:44;37.87;;;24.43;;
19255;SDS011;9762;52.490;13.410;2024-01-06T07:44:11;39.00;;;24.43;;
19255;SDS011;9762;52.490;13.410;2024-01-06T07:46:38;39.20;;;24.30;;
19255;SDS011;9762;52.490;13.410;2024-01-06T07:49:05;44.17;;;26.07;;
19255;SDS011;9762;52.490;13.410;2024-01-06T07:51:31;40.30;;;24.93;;
19255;SDS011;9762;52.490;13.410;2024-01-06T07:53:59;37.07;;;24.63;;
19255;SDS011;9762;52.490;13.410;2024-01-06T07:56:25;40.37;;;25.33;;
19255;SDS011;9762;52.490;13.410;2024-01-06T07:58:50;38.50;;;24.23;;
19255;SDS011;9762;52.490;13.410;2024-01-06T08:01:17;40.07;;;23.47;;
19255;SDS011;9762;52.490;13.410;2024-01-06T08:03:43;38.30;;;23.50;;
19255;SDS011;9762;52.490;13.410;2024-01-06T08:06:09;43.70;;;25.90;;
19255;SDS011;9762;52.490;13.410;2024-01-06T08:08:35;40.50;;;25.70;;
19255;SDS011;9762;52.490;13.410;2024-01-06T08:11:01;43.67;;;26.80;;
19255;SDS011;9762;52.490;13.410;2024-01-06T08:13:26;46.70;;;26.67;;
19255;SDS011;9762;52.490;13.410;2024-01-06T08:15:52;48.53;;;27.07;;
19255;SDS011;9762;52.490;13.410;2024-01-06T08:18:18;43.30;;;26.97;;
19255;SDS011;9762;52.490;13.410;2024-01-06T08:20:43;44.87;;;26.43;;
19255;SDS011;9762;52.490;13.410;2024-01-06T08:23:09;41.93;;;24.83;;
19255;SDS011;9762;52.490;13.410;2024-01-06T08:25:35;44.83;;;27.10;;
19255;SDS011;9762;52.490;13.410;2024-01-06T08:28:01;44.03;;;27.50;;
19255;SDS011;9762;52.490;13.410;2024-01-06T08:30:27;40.20;;;26.47;;
19255;SDS011;9762;52.490;13.410;2024-01-06T08:32:52;42.97;;;24.83;;
19255;SDS011;9762;52.490;13.410;2024-01-06T08:35:18;45.73;;;26.77;;
19255;SDS011;9762;52.490;13.410;2024-01-06T08:37:44;41.50;;;25.70;;
19255;SDS011;9762;52.490;13.410;2024-01-06T08:40:10;39.77;;;26.73;;
19255;SDS011;9762;52.490;13.410;2024-01-06T08:42:36;43.90;;;28.13;;
19255;SDS011;9762;52.490;13.410;2024-01-06T08:45:03;63.90;;;37.30;;
19255;SDS011;9762;52.490;13.410;2024-01-06T08:47:29;40.30;;;25.73;;
19255;SDS011;9762;52.490;13.410;2024-01-06T08:49:55;42.80;;;26.43;;
19255;SDS011;9762;52.490;13.410;2024-01-06T08:52:21;38.83;;;26.27;;
19255;SDS011;9762;52.490;13.410;2024-01-06T08:54:46;42.30;;;26.40;;
19255;SDS011;9762;52.490;13.410;2024-01-06T08:57:12;41.87;;;25.30;;
19255;SDS011;9762;52.490;13.410;2024-01-06T08:59:38;45.33;;;25.60;;
19255;SDS011;9762;52.490;13.410;2024-01-06T09:02:05;46.00;;;27.97;;
19255;SDS011;9762;52.490;13.410;2024-01-06T09:04:30;45.33;;;27.20;;
19255;SDS011;9762;52.490;13.410;2024-01-06T09:06:56;38.50;;;26.23;;
19255;SDS011;9762;52.490;13.410;2024-01-06T09:09:21;40.33;;;24.97;;
19255;SDS011;9762;52.490;13.410;2024-01-06T09:11:48;38.20;;;24.07;;
19255;SDS011;9762;52.490;13.410;2024-01-06T09:14:14;44.33;;;26.90;;
19255;SDS011;9762;52.490;13.410;2024-01-06T09:16:41;43.23;;;26.33;;
19255;SDS011;9762;52.490;13.410;2024-01-06T09:19:07;38.73;;;25.87;;
19255;SDS011;9762;52.490;13.410;2024-01-06T09:21:33;42.03;;;23.97;;
19255;SDS011;9762;52.490;13.410;2024-01-06T09:23:58;39.87;;;26.63;;
19255;SDS011;9762;52.490;13.410;2024-01-06T09:26:25;38.07;;;23.37;;
19255;SDS011;9762;52.490;13.410;2024-01-06T09:28:51;38.33;;;25.03;;
19255;SDS011;9762;52.490;13.410;2024-01-06T09:31:16;38.63;;;25.50;;
19255;SDS011;9762;52.490;13.410;2024-01-06T09:33:42;40.43;;;26.63;;
19255;SDS011;9762;52.490;13.410;2024-01-06T09:36:08;37.73;;;25.23;;
19255;SDS011;9762;52.490;13.410;2024-01-06T09:38:36;38.97;;;25.30;;
19255;SDS011;9762;52.490;13.410;2024-01-06T09:41:02;36.13;;;24.83;;
19255;SDS011;9762;52.490;13.410;2024-01-06T09:43:28;37.20;;;24.17;;
19255;SDS011;9762;52.490;13.410;2024-01-06T09:45:58;38.83;;;24.57;;
19255;SDS011;9762;52.490;13.410;2024-01-06T09:48:40;36.60;;;23.43;;
19255;SDS011;9762;52.490;13.410;2024-01-06T09:51:09;40.80;;;24.23;;
19255;SDS011;9762;52.490;13.410;2024-01-06T09:53:38;41.27;;;25.30;;
19255;SDS011;9762;52.490;13.410;2024-01-06T09:56:25;38.43;;;25.77;;
19255;SDS011;9762;52.490;13.410;2024-01-06T09:58:51;39.00;;;24.83;;
19255;SDS011;9762;52.490;13.410;2024-01-06T10:01:18;37.80;;;24.43;;
19255;SDS011;9762;52.490;13.410;2024-01-06T10:03:43;38.37;;;24.60;;
19255;SDS011;9762;52.490;13.410;2024-01-06T10:06:11;33.70;;;23.77;;
19255;SDS011;9762;52.490;13.410;2024-01-06T10:08:38;38.73;;;25.63;;
19255;SDS011;9762;52.490;13.410;2024-01-06T10:11:05;55.47;;;40.50;;
19255;SDS011;9762;52.490;13.410;2024-01-06T10:13:35;71.53;;;53.20;;
19255;SDS011;9762;52.490;13.410;2024-01-06T10:16:03;51.77;;;39.33;;
19255;SDS011;9762;52.490;13.410;2024-01-06T10:18:29;47.37;;;35.17;;
19255;SDS011;9762;52.490;13.410;2024-01-06T10:20:56;43.70;;;26.20;;
19255;SDS011;9762;52.490;13.410;2024-01-06T10:23:23;37.63;;;25.30;;
19255;SDS011;9762;52.490;13.410;2024-01-06T10:25:51;32.50;;;23.63;;
19255;SDS011;9762;52.490;13.410;2024-01-06T10:28:20;34.20;;;23.97;;
19255;SDS011;9762;52.490;13.410;2024-01-06T10:30:53;33.73;;;23.87;;
19255;SDS011;9762;52.490;13.410;2024-01-06T10:33:23;39.47;;;23.07;;
19255;SDS011;9762;52.490;13.410;2024-01-06T10:35:51;38.47;;;23.57;;
19255;SDS011;9762;52.490;13.410;2024-01-06T10:38:19;32.17;;;23.40;;
19255;SDS011;9762;52.490;13.410;2024-01-06T10:40:58;39.13;;;25.73;;
19255;SDS011;9762;52.490;13.410;2024-01-06T10:43:31;35.03;;;23.97;;
19255;SDS011;9762;52.490;13.410;2024-01-06T10:46:02;35.73;;;23.87;;
19255;SDS011;9762;52.490;13.410;2024-01-06T10:48:32;36.73;;;24.20;;
19255;SDS011;9762;52.490;13.410;2024-01-06T10:50:59;36.83;;;23.77;;
19255;SDS011;9762;52.490;13.410;2024-01-06T10:53:27;37.00;;;25.63;;
19255;SDS011;9762;52.490;13.410;2024-01-06T10:55:53;33.83;;;24.63;;
19255;SDS011;9762;52.490;13.410;2024-01-06T10:58:19;31.90;;;24.07;;
19255;SDS011;9762;52.490;13.410;2024-01-06T11:00:45;33.63;;;23.33;;
19255;SDS011;9762;52.490;13.410;2024-01-06T11:03:12;32.57;;;24.07;;
19255;SDS011;9762;52.490;13.410;2024-01-06T11:05:40;34.50;;;21.93;;
19255;SDS011;9762;52.490;13.410;2024-01-06T11:08:06;35.53;;;23.27;;
19255;SDS011;9762;52.490;13.410;2024-01-06T11:10:33;32.00;;;21.90;;
19255;SDS011;9762;52.490;13.410;2024-01-06T11:13:11;29.33;;;21.77;;
19255;SDS011;9762;52.490;13.410;2024-01-06T11:15:38;41.17;;;29.40;;
19255;SDS011;9762;52.490;13.410;2024-01-06T11:18:05;35.13;;;25.07;;
19255;SDS011;9762;52.490;13.410;2024-01-06T11:20:31;33.70;;;23.37;;
19255;SDS011;9762;52.490;13.410;2024-01-06T11:23:17;32.87;;;23.93;;
19255;SDS011;9762;52.490;13.410;2024-01-06T11:25:44;35.10;;;23.60;;
19255;SDS011;9762;52.490;13.410;2024-01-06T11:28:10;32.03;;;24.40;;
19255;SDS011;9762;52.490;13.410;2024-01-06T11:30:37;34.03;;;24.13;;
19255;SDS011;9762;52.490;13.410;2024-01-06T11:33:04;40.57;;;27.67;;
19255;SDS011;9762;52.490;13.410;2024-01-06T11:35:29;32.23;;;23.37;;
19255;SDS011;9762;52.490;13.410;2024-01-06T11:37:56;35.17;;;21.80;;
19255;SDS011;9762;52.490;13.410;2024-01-06T11:40:30;30.67;;;22.77;;
19255;SDS011;9762;52.490;13.410;2024-01-06T11:42:58;33.63;;;22.97;;
19255;SDS011;9762;52.490;13.410;2024-01-06T11:45:33;27.20;;;21.17;;
19255;SDS011;9762;52.490;13.410;2024-01-06T11:48:00;27.43;;;21.60;;
19255;SDS011;9762;52.490;13.410;2024-01-06T11:50:28;27.60;;;22.40;;
19255;SDS011;9762;52.490;13.410;2024-01-06T11:52:57;29.43;;;21.57;;
19255;SDS011;9762;52.490;13.410;2024-01-06T11:55:24;33.17;;;22.83;;
19255;SDS011;9762;52.490;13.410;2024-01-06T11:57:53;31.50;;;23.83;;
19255;SDS011;9762;52.490;13.410;2024-01-06T12:00:19;32.43;;;25.40;;
19255;SDS011;9762;52.490;13.410;2024-01-06T12:02:45;29.27;;;22.00;;
19255;SDS011;9762;52.490;13.410;2024-01-06T12:05:14;30.33;;;22.73;;
19255;SDS011;9762;52.490;13.410;2024-01-06T12:07:42;31.27;;;21.57;;
19255;SDS011;9762;52.490;13.410;2024-01-06T12:10:20;29.87;;;21.87;;
19255;SDS011;9762;52.490;13.410;2024-01-06T12:12:56;30.73;;;22.93;;
19255;SDS011;9762;52.490;13.410;2024-01-06T12:15:26;29.80;;;22.37;;
19255;SDS011;9762;52.490;13.410;2024-01-06T12:17:52;29.57;;;21.43;;
19255;SDS011;9762;52.490;13.410;2024-01-06T12:20:18;28.83;;;21.60;;
19255;SDS011;9762;52.490;13.410;2024-01-06T12:22:44;28.77;;;21.53;;
19255;SDS011;9762;52.490;13.410;2024-01-06T12:25:10;27.93;;;21.47;;
19255;SDS011;9762;52.490;13.410;2024-01-06T12:27:35;32.23;;;22.33;;
19255;SDS011;9762;52.490;13.410;2024-01-06T12:30:06;33.40;;;23.33;;
19255;SDS011;9762;52.490;13.410;2024-01-06T12:32:40;37.50;;;24.43;;
19255;SDS011;9762;52.490;13.410;2024-01-06T12:35:07;31.43;;;23.13;;
19255;SDS011;9762;52.490;13.410;2024-01-06T12:37:35;34.67;;;23.80;;
19255;SDS011;9762;52.490;13.410;2024-01-06T12:40:01;28.30;;;21.50;;
19255;SDS011;9762;52.490;13.410;2024-01-06T12:42:26;29.20;;;22.27;;
19255;SDS011;9762;52.490;13.410;2024-01-06T12:44:52;30.13;;;21.73;;
19255;SDS011;9762;52.490;13.410;2024-01-06T12:47:18;32.83;;;23.70;;
19255;SDS011;9762;52.490;13.410;2024-01-06T12:49:44;31.73;;;21.27;;
19255;SDS011;9762;52.490;13.410;2024-01-06T12:52:10;28.97;;;22.27;;
19255;SDS011;9762;52.490;13.410;2024-01-06T12:54:36;28.67;;;21.77;;
19255;SDS011;9762;52.490;13.410;2024-01-06T12:57:02;30.43;;;22.17;;
19255;SDS011;9762;52.490;13.410;2024-01-06T12:59:28;29.40;;;22.07;;
19255;SDS011;9762;52.490;13.410;2024-01-06T13:01:55;30.50;;;22.63;;
19255;SDS011;9762;52.490;13.410;2024-01-06T13:04:21;28.83;;;22.10;;
19255;SDS011;9762;52.490;13.410;2024-01-06T13:06:47;27.87;;;20.50;;
19255;SDS011;9762;52.490;13.410;2024-01-06T13:09:14;32.43;;;21.27;;
19255;SDS011;9762;52.490;13.410;2024-01-06T13:11:41;29.23;;;21.20;;
19255;SDS011;9762;52.490;13.410;2024-01-06T13:14:07;28.87;;;20.23;;
19255;SDS011;9762;52.490;13.410;2024-01-06T13:16:33;32.63;;;21.47;;
19255;SDS011;9762;52.490;13.410;2024-01-06T13:19:00;28.93;;;21.50;;
19255;SDS011;9762;52.490;13.410;2024-01-06T13:21:25;30.27;;;22.97;;
19255;SDS011;9762;52.490;13.410;2024-01-06T13:23:53;49.00;;;33.87;;
19255;SDS011;9762;52.490;13.410;2024-01-06T13:26:24;27.27;;;19.70;;
19255;SDS011;9762;52.490;13.410;2024-01-06T13:28:50;27.20;;;19.73;;
19255;SDS011;9762;52.490;13.410;2024-01-06T13:31:15;30.77;;;20.73;;
19255;SDS011;9762;52.490;13.410;2024-01-06T13:33:41;28.50;;;20.10;;
19255;SDS011;9762;52.490;13.410;2024-01-06T13:36:07;27.60;;;19.63;;
19255;SDS011;9762;52.490;13.410;2024-01-06T13:38:33;27.30;;;19.13;;
19255;SDS011;9762;52.490;13.410;2024-01-06T13:40:58;28.57;;;19.40;;
19255;SDS011;9762;52.490;13.410;2024-01-06T13:43:24;26.07;;;18.97;;
19255;SDS011;9762;52.490;13.410;2024-01-06T13:45:49;25.60;;;18.30;;
19255;SDS011;9762;52.490;13.410;2024-01-06T13:48:15;28.57;;;19.50;;
19255;SDS011;9762;52.490;13.410;2024-01-06T13:50:41;28.30;;;18.87;;
19255;SDS011;9762;52.490;13.410;2024-01-06T13:53:07;26.97;;;19.93;;
19255;SDS011;9762;52.490;13.410;2024-01-06T13:55:32;24.90;;;18.83;;
19255;SDS011;9762;52.490;13.410;2024-01-06T13:57:59;27.90;;;20.57;;
19255;SDS011;9762;52.490;13.410;2024-01-06T14:00:24;21.53;;;17.63;;
19255;SDS011;9762;52.490;13.410;2024-01-06T14:02:51;22.27;;;18.17;;
19255;SDS011;9762;52.490;13.410;2024-01-06T14:05:17;26.47;;;18.07;;
19255;SDS011;9762;52.490;13.410;2024-01-06T14:07:44;24.47;;;18.30;;
19255;SDS011;9762;52.490;13.410;2024-01-06T14:10:12;23.67;;;18.37;;
19255;SDS011;9762;52.490;13.410;2024-01-06T14:12:40;24.97;;;17.67;;
19255;SDS011;9762;52.490;13.410;2024-01-06T14:15:07;26.30;;;17.97;;
19255;SDS011;9762;52.490;13.410;2024-01-06T14:17:33;23.53;;;17.83;;